createdAt,value
2019-03-20T00:02:13.185Z,78.33
2019-03-20T00:04:49.230Z,77.69
2019-03-20T00:07:11.591Z,77.63
2019-03-20T00:09:39.829Z,78.21
2019-03-20T00:12:08.067Z,79.93
2019-03-20T00:14:36.297Z,80.05
2019-03-20T00:17:04.539Z,77.71
2019-03-20T00:19:32.782Z,78.76
2019-03-20T00:22:01.019Z,77.36
2019-03-20T00:24:29.251Z,77.62
2019-03-20T00:26:57.489Z,77.56
2019-03-20T00:29:26.007Z,77.66
2019-03-20T00:31:54.240Z,78.59
2019-03-20T00:34:22.485Z,80.11
2019-03-20T00:36:50.715Z,78.81
2019-03-20T00:39:18.971Z,77.86
2019-03-20T00:41:47.234Z,77.89
2019-03-20T00:44:15.441Z,77.89
2019-03-20T00:46:43.674Z,78.03
2019-03-20T00:49:11.922Z,78.63
2019-03-20T00:51:40.151Z,78.32
2019-03-20T00:54:08.620Z,78.66
2019-03-20T00:56:36.845Z,80.29
2019-03-20T00:59:05.095Z,80.93
2019-03-20T01:01:33.324Z,80.61
2019-03-20T01:04:01.566Z,80.75
2019-03-20T01:06:29.813Z,80.51
2019-03-20T01:08:58.041Z,78.99
2019-03-20T01:11:26.283Z,81.29
2019-03-20T01:13:54.521Z,79.75
2019-03-20T01:16:22.768Z,79.28
2019-03-20T01:18:51.221Z,78.90
2019-03-20T01:21:19.467Z,79.01
2019-03-20T01:23:47.703Z,78.97
2019-03-20T01:26:15.942Z,79.13
2019-03-20T01:28:44.402Z,80.17
2019-03-20T01:31:12.881Z,79.96
2019-03-20T01:33:41.341Z,79.45
2019-03-20T01:36:09.580Z,79.40
2019-03-20T01:38:37.811Z,79.66
2019-03-20T01:41:06.287Z,82.01
2019-03-20T01:43:34.522Z,82.68
2019-03-20T01:46:02.980Z,81.59
2019-03-20T01:48:31.214Z,81.26
2019-03-20T01:51:14.907Z,80.75
2019-03-20T01:53:43.368Z,80.92
2019-03-20T01:56:11.599Z,82.64
2019-03-20T01:58:39.842Z,79.96
2019-03-20T02:01:08.071Z,79.77
2019-03-20T02:03:36.308Z,80.18
2019-03-20T02:06:04.580Z,80.14
2019-03-20T02:08:32.823Z,79.99
2019-03-20T02:11:01.059Z,82.81
2019-03-20T02:16:03.204Z,80.18
2019-03-20T02:18:31.445Z,79.99
2019-03-20T02:20:59.921Z,82.50
2019-03-20T02:23:28.174Z,80.61
2019-03-20T02:25:56.420Z,80.21
2019-03-20T02:28:24.929Z,81.05
2019-03-20T02:30:53.171Z,80.59
2019-03-20T02:33:21.647Z,80.74
2019-03-20T02:35:51.774Z,82.94
2019-03-20T02:38:20.309Z,82.15
2019-03-20T02:40:48.557Z,82.40
2019-03-20T02:43:16.799Z,83.08
2019-03-20T02:45:45.274Z,82.34
2019-03-20T02:48:13.526Z,82.77
2019-03-20T02:50:42.011Z,81.81
2019-03-20T02:53:10.225Z,82.93
2019-03-20T02:55:38.468Z,82.79
2019-03-20T02:58:06.702Z,81.62
2019-03-20T03:00:34.943Z,80.89
2019-03-20T03:03:03.185Z,81.92
2019-03-20T03:05:31.426Z,80.86
2019-03-20T03:07:59.659Z,81.17
2019-03-20T03:10:28.133Z,83.12
2019-03-20T03:12:56.372Z,81.65
2019-03-20T03:15:24.631Z,81.17
2019-03-20T03:17:52.875Z,82.51
2019-03-20T03:20:21.106Z,83.07
2019-03-20T03:22:49.357Z,81.82
2019-03-20T03:25:17.838Z,82.91
2019-03-20T03:27:46.300Z,81.86
2019-03-20T03:30:17.863Z,82.41
2019-03-20T03:32:46.370Z,82.51
2019-03-20T03:35:18.249Z,81.58
2019-03-20T03:37:45.045Z,82.71
2019-03-20T03:40:18.346Z,83.08
2019-03-20T03:42:47.006Z,83.35
2019-03-20T03:45:16.149Z,81.71
2019-03-20T03:47:44.441Z,81.63
2019-03-20T03:50:13.001Z,82.38
2019-03-20T03:52:41.307Z,81.53
2019-03-20T03:55:11.414Z,81.69
2019-03-20T03:57:40.210Z,83.65
2019-03-20T04:00:13.917Z,83.83
2019-03-20T04:02:42.159Z,82.85
2019-03-20T04:05:10.400Z,83.91
2019-03-20T04:07:38.873Z,83.25
2019-03-20T04:10:13.356Z,82.39
2019-03-20T04:12:41.671Z,82.73
2019-03-20T04:15:13.078Z,82.70
2019-03-20T04:17:41.390Z,82.18
2019-03-20T04:20:12.673Z,83.21
2019-03-20T04:22:41.038Z,83.19
2019-03-20T04:25:10.470Z,83.80
2019-03-20T04:27:38.706Z,84.65
2019-03-20T04:30:09.786Z,83.82
2019-03-20T04:32:38.019Z,84.10
2019-03-20T04:35:06.607Z,84.60
2019-03-20T04:37:34.848Z,83.58
2019-03-20T04:40:03.605Z,83.17
2019-03-20T04:42:31.842Z,83.36
2019-03-20T04:45:00.313Z,83.53
2019-03-20T04:47:28.510Z,83.52
2019-03-20T04:49:56.756Z,82.34
2019-03-20T04:52:25.224Z,82.36
2019-03-20T04:54:53.473Z,82.28
2019-03-20T04:57:21.711Z,82.42
2019-03-20T04:59:49.960Z,82.44
2019-03-20T05:02:18.200Z,83.32
2019-03-20T05:04:46.454Z,83.87
2019-03-20T05:07:14.707Z,84.20
2019-03-20T05:09:43.204Z,82.64
2019-03-20T05:12:11.445Z,83.00
2019-03-20T05:14:39.693Z,82.65
2019-03-20T05:17:07.931Z,82.92
2019-03-20T05:19:36.176Z,84.84
2019-03-20T05:22:04.428Z,85.12
2019-03-20T05:24:32.660Z,83.49
2019-03-20T05:27:01.136Z,82.94
2019-03-20T05:29:29.598Z,82.95
2019-03-20T05:31:57.862Z,84.13
2019-03-20T05:34:26.340Z,85.53
2019-03-20T05:36:54.613Z,85.17
2019-03-20T05:39:22.855Z,83.56
2019-03-20T05:41:51.108Z,83.03
2019-03-20T05:44:19.341Z,83.03
2019-03-20T05:46:47.588Z,84.12
2019-03-20T05:49:15.828Z,85.55
2019-03-20T05:51:44.078Z,85.20
2019-03-20T05:54:12.317Z,83.38
2019-03-20T05:56:40.570Z,83.79
2019-03-20T05:59:09.039Z,85.23
2019-03-20T06:01:37.511Z,84.82
2019-03-20T06:04:05.758Z,85.29
2019-03-20T06:06:34.251Z,84.14
2019-03-20T06:09:02.490Z,84.90
2019-03-20T06:11:30.964Z,85.29
2019-03-20T06:13:59.206Z,85.17
2019-03-20T06:16:27.677Z,83.91
2019-03-20T06:18:55.927Z,83.49
2019-03-20T06:21:24.170Z,83.54
2019-03-20T06:23:52.408Z,83.61
2019-03-20T06:26:20.882Z,83.40
2019-03-20T06:28:49.116Z,83.58
2019-03-20T06:31:18.837Z,83.36
2019-03-20T06:33:47.407Z,83.57
2019-03-20T06:36:15.646Z,83.58
2019-03-20T06:38:43.884Z,83.47
2019-03-20T06:41:12.360Z,83.40
2019-03-20T06:43:40.599Z,83.52
2019-03-20T06:46:08.831Z,84.67
2019-03-20T06:48:37.076Z,83.83
2019-03-20T06:51:05.319Z,82.26
2019-03-20T06:53:33.560Z,82.13
2019-03-20T06:56:01.792Z,82.63
2019-03-20T06:58:30.038Z,82.54
2019-03-20T07:01:10.577Z,81.23
2019-03-20T07:03:47.949Z,81.02
2019-03-20T07:06:21.973Z,80.77
2019-03-20T07:09:02.575Z,80.71
2019-03-20T07:11:33.613Z,80.68
2019-03-20T07:14:01.850Z,80.76
2019-03-20T07:16:30.088Z,80.48
2019-03-20T07:18:58.326Z,80.46
2019-03-20T07:21:26.561Z,79.97
2019-03-20T07:23:54.796Z,79.70
2019-03-20T07:26:23.042Z,79.40
2019-03-20T07:28:51.512Z,78.92
2019-03-20T07:31:19.764Z,78.28
2019-03-20T07:33:48.063Z,77.30
2019-03-20T07:36:16.246Z,77.75
2019-03-20T07:38:44.490Z,76.89
2019-03-20T07:41:12.970Z,75.19
2019-03-20T07:43:41.212Z,72.89
2019-03-20T07:46:09.455Z,72.89
2019-03-20T07:48:37.691Z,74.45
2019-03-20T07:51:05.936Z,71.26
2019-03-20T07:53:34.177Z,71.95
2019-03-20T07:56:02.436Z,68.23
2019-03-20T07:58:30.676Z,68.70
2019-03-20T08:00:58.924Z,68.70
2019-03-20T08:03:27.170Z,70.21
2019-03-20T08:05:54.022Z,69.25
2019-03-20T08:08:22.260Z,70.24
2019-03-20T08:10:51.077Z,67.24
2019-03-20T08:13:19.607Z,68.71
2019-03-20T08:15:47.845Z,69.40
2019-03-20T08:18:16.078Z,69.40
2019-03-20T08:20:44.325Z,68.64
2019-03-20T08:23:12.764Z,69.28
2019-03-20T08:25:41.228Z,68.70
2019-03-20T08:28:09.477Z,67.27
2019-03-20T08:30:37.777Z,67.27
2019-03-20T08:33:06.246Z,68.37
2019-03-20T08:35:34.706Z,68.14
2019-03-20T08:38:03.173Z,68.14
2019-03-20T08:40:31.630Z,67.40
2019-03-20T08:42:59.867Z,65.93
2019-03-20T08:45:28.100Z,66.23
2019-03-20T08:47:56.340Z,65.13
2019-03-20T08:50:25.736Z,65.13
2019-03-20T08:52:54.205Z,65.11
2019-03-20T08:55:22.909Z,64.88
2019-03-20T08:57:51.540Z,64.20
2019-03-20T09:00:24.563Z,62.69
2019-03-20T09:02:52.996Z,64.02
2019-03-20T09:05:21.221Z,63.47
2019-03-20T09:07:49.464Z,63.07
2019-03-20T09:10:27.329Z,63.50
2019-03-20T09:12:55.571Z,63.38
2019-03-20T09:15:24.024Z,62.80
2019-03-20T09:17:52.272Z,63.85
2019-03-20T09:20:23.871Z,63.50
2019-03-20T09:22:52.123Z,63.47
2019-03-20T09:25:21.286Z,62.67
2019-03-20T09:27:49.540Z,63.34
2019-03-20T09:30:20.522Z,64.48
2019-03-20T09:32:48.928Z,62.85
2019-03-20T09:35:17.175Z,63.17
2019-03-20T09:37:51.730Z,62.24
2019-03-20T09:40:17.048Z,62.15
2019-03-20T09:42:45.509Z,62.14
2019-03-20T09:45:16.247Z,61.29
2019-03-20T09:47:44.552Z,59.95
2019-03-20T09:50:18.004Z,61.30
2019-03-20T09:52:46.457Z,58.72
2019-03-20T09:55:15.771Z,60.96
2019-03-20T09:57:44.004Z,60.46
2019-03-20T10:00:18.061Z,61.25
2019-03-20T10:02:46.588Z,60.67
2019-03-20T10:05:14.858Z,60.21
2019-03-20T10:07:43.360Z,60.62
2019-03-20T10:10:22.461Z,60.64
2019-03-20T10:12:50.693Z,59.59
2019-03-20T10:15:20.177Z,61.36
2019-03-20T10:17:48.408Z,59.80
2019-03-20T10:20:19.013Z,59.36
2019-03-20T10:22:47.309Z,59.48
2019-03-20T10:25:16.289Z,59.29
2019-03-20T10:27:44.592Z,60.09
2019-03-20T10:30:15.690Z,60.10
2019-03-20T10:32:44.215Z,59.36
2019-03-20T10:35:12.524Z,59.48
2019-03-20T10:37:40.756Z,58.68
2019-03-20T10:40:22.654Z,58.13
2019-03-20T10:42:51.122Z,57.94
2019-03-20T10:45:20.956Z,56.99
2019-03-20T10:47:52.676Z,58.43
2019-03-20T10:50:21.574Z,57.47
2019-03-20T10:52:50.137Z,56.57
2019-03-20T10:55:18.652Z,55.51
2019-03-20T10:57:47.058Z,55.58
2019-03-20T11:00:17.170Z,54.26
2019-03-20T11:02:45.409Z,54.98
2019-03-20T11:05:14.089Z,53.29
2019-03-20T11:07:42.558Z,53.15
2019-03-20T11:10:16.177Z,52.00
2019-03-20T11:12:44.635Z,52.82
2019-03-20T11:15:15.053Z,53.55
2019-03-20T11:17:43.291Z,52.99
2019-03-20T11:20:14.075Z,52.32
2019-03-20T11:22:42.748Z,51.01
2019-03-20T11:25:13.334Z,49.05
2019-03-20T11:27:41.598Z,51.06
2019-03-20T11:30:18.480Z,49.50
2019-03-20T11:32:46.714Z,48.97
2019-03-20T11:35:14.969Z,47.52
2019-03-20T11:37:43.210Z,47.61
2019-03-20T11:40:16.949Z,48.57
2019-03-20T11:42:45.424Z,49.07
2019-03-20T11:45:13.661Z,48.16
2019-03-20T11:50:32.645Z,48.19
2019-03-20T11:53:01.249Z,46.98
2019-03-20T11:55:29.918Z,47.94
2019-03-20T11:57:58.823Z,46.14
2019-03-20T12:00:27.063Z,45.10
2019-03-20T12:02:55.308Z,46.88
2019-03-20T12:05:23.771Z,47.11
2019-03-20T12:07:52.239Z,46.77
2019-03-20T12:10:22.979Z,46.97
2019-03-20T12:12:51.398Z,47.13
2019-03-20T12:15:19.633Z,46.06
2019-03-20T12:17:47.922Z,46.13
2019-03-20T12:20:19.336Z,45.91
2019-03-20T12:22:48.626Z,45.52
2019-03-20T12:25:19.567Z,46.80
2019-03-20T12:27:47.817Z,45.91
2019-03-20T12:30:18.909Z,46.01
2019-03-20T12:32:47.382Z,46.77
2019-03-20T12:35:17.279Z,45.78
2019-03-20T12:37:45.532Z,46.07
2019-03-20T12:40:19.225Z,46.13
2019-03-20T12:42:47.475Z,45.10
2019-03-20T12:45:21.981Z,44.89
2019-03-20T12:47:50.464Z,43.31
2019-03-20T12:50:18.922Z,45.59
2019-03-20T12:52:47.168Z,44.39
2019-03-20T12:55:17.168Z,44.49
2019-03-20T12:57:45.421Z,44.12
2019-03-20T13:00:21.689Z,42.77
2019-03-20T13:02:50.542Z,44.12
2019-03-20T13:05:19.305Z,43.64
2019-03-20T13:07:47.537Z,43.11
2019-03-20T13:10:26.239Z,44.47
2019-03-20T13:12:54.713Z,43.80
2019-03-20T13:15:26.749Z,43.21
2019-03-20T13:17:56.149Z,42.54
2019-03-20T13:20:24.562Z,44.22
2019-03-20T13:22:58.492Z,44.33
2019-03-20T13:25:26.733Z,42.84
2019-03-20T13:27:54.965Z,44.12
2019-03-20T13:30:29.245Z,42.71
2019-03-20T13:32:57.776Z,42.94
2019-03-20T13:35:26.254Z,43.34
2019-03-20T13:37:54.515Z,42.67
2019-03-20T13:40:22.763Z,41.49
2019-03-20T13:42:51.037Z,41.73
2019-03-20T13:45:22.113Z,42.51
2019-03-20T13:47:50.579Z,42.12
2019-03-20T13:50:18.889Z,42.76
2019-03-20T13:52:47.125Z,41.88
2019-03-20T13:55:16.336Z,43.10
2019-03-20T13:57:44.736Z,42.85
2019-03-20T14:00:18.104Z,43.32
2019-03-20T14:02:46.636Z,43.61
2019-03-20T14:05:14.949Z,40.82
2019-03-20T14:07:43.186Z,42.75
2019-03-20T14:10:24.311Z,41.85
2019-03-20T14:12:44.049Z,42.24
2019-03-20T14:15:13.862Z,41.08
2019-03-20T14:17:42.166Z,41.36
2019-03-20T14:20:18.405Z,40.14
2019-03-20T14:22:46.637Z,40.66
2019-03-20T14:25:15.280Z,41.31
2019-03-20T14:27:43.513Z,40.69
2019-03-20T14:30:14.796Z,40.49
2019-03-20T14:32:43.257Z,40.26
2019-03-20T14:35:11.506Z,39.59
2019-03-20T14:37:39.965Z,38.66
2019-03-20T14:40:13.901Z,38.96
2019-03-20T14:42:42.373Z,38.44
2019-03-20T14:45:12.776Z,39.03
2019-03-20T14:47:42.272Z,38.90
2019-03-20T14:50:14.245Z,38.43
2019-03-20T14:52:42.714Z,36.65
2019-03-20T14:55:12.714Z,36.88
2019-03-20T14:57:40.964Z,38.09
2019-03-20T15:00:17.883Z,36.81
2019-03-20T15:02:46.363Z,35.52
2019-03-20T15:05:14.889Z,37.17
2019-03-20T15:07:43.134Z,36.48
2019-03-20T15:10:16.529Z,35.97
2019-03-20T15:12:45.069Z,35.76
2019-03-20T15:15:36.925Z,36.03
2019-03-20T15:18:06.209Z,36.86
2019-03-20T15:20:34.741Z,35.99
2019-03-20T15:23:02.983Z,35.01
2019-03-20T15:25:31.445Z,35.89
2019-03-20T15:27:59.689Z,37.43
2019-03-20T15:30:29.724Z,36.82
2019-03-20T15:32:58.045Z,35.95
2019-03-20T15:35:26.282Z,37.33
2019-03-20T15:37:54.750Z,35.76
2019-03-20T15:40:24.149Z,36.62
2019-03-20T15:42:52.621Z,36.60
2019-03-20T15:45:20.854Z,35.75
2019-03-20T15:47:49.102Z,37.16
2019-03-20T15:50:29.427Z,36.53
2019-03-20T15:52:57.896Z,35.76
2019-03-20T15:55:36.606Z,34.75
2019-03-20T15:58:05.069Z,36.49
2019-03-20T16:00:33.532Z,36.32
2019-03-20T16:03:10.985Z,36.04
2019-03-20T16:05:39.445Z,35.72
2019-03-20T16:08:07.699Z,36.45
2019-03-20T16:10:35.999Z,36.54
2019-03-20T16:13:04.655Z,36.77
2019-03-20T16:15:32.889Z,37.41
2019-03-20T16:18:01.126Z,37.50
2019-03-20T16:20:29.595Z,37.99
2019-03-20T16:22:58.063Z,38.23
2019-03-20T16:25:26.529Z,38.81
2019-03-20T16:27:54.993Z,39.51
2019-03-20T16:30:33.625Z,39.71
2019-03-20T16:33:01.867Z,40.06
2019-03-20T16:35:30.339Z,40.95
2019-03-20T16:37:58.806Z,40.98
2019-03-20T16:40:34.258Z,42.05
2019-03-20T16:43:02.493Z,42.51
2019-03-20T16:45:37.590Z,42.58
2019-03-20T16:48:06.389Z,43.41
2019-03-20T16:50:34.635Z,43.73
2019-03-20T16:53:02.869Z,43.98
2019-03-20T16:55:31.115Z,44.33
2019-03-20T16:57:59.365Z,44.44
2019-03-20T17:00:34.022Z,44.42
2019-03-20T17:03:02.265Z,44.89
2019-03-20T17:05:31.375Z,44.97
2019-03-20T17:07:59.614Z,45.15
2019-03-20T17:10:41.684Z,45.30
2019-03-20T17:13:09.918Z,45.53
2019-03-20T17:15:42.559Z,45.84
2019-03-20T17:18:10.797Z,46.29
2019-03-20T17:20:39.040Z,46.53
2019-03-20T17:23:07.904Z,47.33
2019-03-20T17:25:36.272Z,47.18
2019-03-20T17:28:05.149Z,47.91
2019-03-20T17:30:39.360Z,47.53
2019-03-20T17:33:07.847Z,49.09
2019-03-20T17:35:36.082Z,48.38
2019-03-20T17:38:04.766Z,49.05
2019-03-20T17:40:33.010Z,49.00
2019-03-20T17:43:01.321Z,48.83
2019-03-20T17:45:29.902Z,48.79
2019-03-20T17:47:58.216Z,49.22
2019-03-20T17:50:30.693Z,49.66
2019-03-20T17:52:59.171Z,50.01
2019-03-20T17:55:27.408Z,50.40
2019-03-20T17:57:55.675Z,50.95
2019-03-20T18:00:30.007Z,51.96
2019-03-20T18:02:58.246Z,52.58
2019-03-20T18:05:26.524Z,53.00
2019-03-20T18:07:54.732Z,53.21
2019-03-20T18:10:22.980Z,53.49
2019-03-20T18:12:51.218Z,53.67
2019-03-20T18:15:19.870Z,54.21
2019-03-20T18:17:48.344Z,55.00
2019-03-20T18:20:18.794Z,54.56
2019-03-20T18:22:47.032Z,56.04
2019-03-20T18:25:15.582Z,55.97
2019-03-20T18:27:43.822Z,55.03
2019-03-20T18:30:21.091Z,55.85
2019-03-20T18:32:49.837Z,55.85
2019-03-20T18:35:18.250Z,56.11
2019-03-20T18:37:46.656Z,56.42
2019-03-20T18:40:17.530Z,56.53
2019-03-20T18:42:45.839Z,56.82
2019-03-20T18:45:21.865Z,58.08
2019-03-20T18:47:50.330Z,58.12
2019-03-20T18:50:19.438Z,58.55
2019-03-20T18:52:48.155Z,57.76
2019-03-20T18:55:17.430Z,58.73
2019-03-20T18:57:45.912Z,59.97
2019-03-20T19:00:27.538Z,58.76
2019-03-20T19:03:04.815Z,59.41
2019-03-20T19:05:36.467Z,59.19
2019-03-20T19:08:04.949Z,60.18
2019-03-20T19:10:33.185Z,59.59
2019-03-20T19:13:01.659Z,59.66
2019-03-20T19:15:29.916Z,59.83
2019-03-20T19:17:58.134Z,60.33
2019-03-20T19:20:26.370Z,60.70
2019-03-20T19:22:54.847Z,61.23
2019-03-20T19:25:23.085Z,60.52
2019-03-20T19:27:51.329Z,62.00
2019-03-20T19:30:24.658Z,63.21
2019-03-20T19:32:53.210Z,63.63
2019-03-20T19:35:21.678Z,63.59
2019-03-20T19:37:50.163Z,64.06
2019-03-20T19:40:19.626Z,64.33
2019-03-20T19:42:47.866Z,62.63
2019-03-20T19:45:16.840Z,64.09
2019-03-20T19:47:45.375Z,64.55
2019-03-20T19:50:15.290Z,62.39
2019-03-20T19:52:43.685Z,63.17
2019-03-20T19:55:15.966Z,64.07
2019-03-20T19:57:44.502Z,63.35
2019-03-20T20:00:19.203Z,63.44
2019-03-20T20:02:47.438Z,64.64
2019-03-20T20:05:16.412Z,63.86
2019-03-20T20:07:44.759Z,63.83
2019-03-20T20:10:16.747Z,64.90
2019-03-20T20:12:44.980Z,63.83
2019-03-20T20:15:15.686Z,64.98
2019-03-20T20:17:44.173Z,64.50
2019-03-20T20:20:18.940Z,65.72
2019-03-20T20:22:47.191Z,67.44
2019-03-20T20:25:15.428Z,64.77
2019-03-20T20:27:43.662Z,66.11
2019-03-20T20:30:19.029Z,64.26
2019-03-20T20:32:47.249Z,64.13
2019-03-20T20:35:16.532Z,68.42
2019-03-20T20:37:45.716Z,67.34
2019-03-20T20:40:18.724Z,66.75
2019-03-20T20:42:47.190Z,65.20
2019-03-20T20:45:15.503Z,65.54
2019-03-20T20:47:43.741Z,65.38
2019-03-20T20:50:13.720Z,66.40
2019-03-20T20:52:42.266Z,66.10
2019-03-20T20:55:13.444Z,66.14
2019-03-20T20:57:41.698Z,66.51
2019-03-20T21:00:16.083Z,65.92
2019-03-20T21:02:44.332Z,66.49
2019-03-20T21:05:12.635Z,67.70
2019-03-20T21:07:40.895Z,66.01
2019-03-20T21:10:12.526Z,65.90
2019-03-20T21:12:42.715Z,66.44
2019-03-20T21:15:19.552Z,67.98
2019-03-20T21:17:53.787Z,68.48
2019-03-20T21:20:22.027Z,68.83
2019-03-20T21:23:26.437Z,68.58
2019-03-20T21:25:56.054Z,66.62
2019-03-20T21:28:46.768Z,67.34
2019-03-20T21:31:16.180Z,67.15
2019-03-20T21:34:08.573Z,67.65
2019-03-20T21:36:54.682Z,68.61
2019-03-20T21:39:22.927Z,68.45
2019-03-20T21:42:18.388Z,70.19
2019-03-20T21:45:24.089Z,67.63
2019-03-20T21:47:52.331Z,68.35
2019-03-20T21:50:40.001Z,67.77
2019-03-20T21:53:11.775Z,68.52
2019-03-20T21:56:16.527Z,69.53
2019-03-20T21:58:51.043Z,68.71
2019-03-20T22:01:41.846Z,70.03
2019-03-20T22:04:10.105Z,68.52
2019-03-20T22:07:01.168Z,67.43
2019-03-20T22:09:53.687Z,67.48
2019-03-20T22:12:34.046Z,69.15
2019-03-20T22:15:13.971Z,67.96
2019-03-20T22:18:04.690Z,68.85
2019-03-20T22:20:36.328Z,68.98
2019-03-20T22:23:33.261Z,71.11
2019-03-20T22:26:26.759Z,70.76
2019-03-20T22:29:14.227Z,71.24
2019-03-20T22:31:48.526Z,69.48
2019-03-20T22:34:36.496Z,69.35
2019-03-20T22:37:04.730Z,68.43
2019-03-20T22:39:59.051Z,69.41
2019-03-20T22:42:39.686Z,68.22
2019-03-20T22:45:22.953Z,68.07
2019-03-20T22:47:56.812Z,68.12
2019-03-20T22:50:44.302Z,68.31
2019-03-20T22:53:24.356Z,68.42
2019-03-20T22:56:19.722Z,71.08
2019-03-20T22:58:47.973Z,71.88
2019-03-20T23:01:19.777Z,72.09
2019-03-20T23:03:54.129Z,70.48
2019-03-20T23:06:22.372Z,71.62
2019-03-20T23:08:50.621Z,72.80
2019-03-20T23:11:19.078Z,71.66
2019-03-20T23:13:47.314Z,71.36
2019-03-20T23:16:18.734Z,71.74
2019-03-20T23:18:46.969Z,70.89
2019-03-20T23:21:15.231Z,71.34
2019-03-20T23:23:43.490Z,69.97
2019-03-20T23:26:11.738Z,70.05
2019-03-20T23:28:40.958Z,70.29
2019-03-20T23:31:09.434Z,70.14
2019-03-20T23:33:37.898Z,70.11
2019-03-20T23:36:06.218Z,71.74
2019-03-20T23:38:34.468Z,70.27
2019-03-20T23:41:02.711Z,72.15
2019-03-20T23:43:30.949Z,71.46
2019-03-20T23:45:59.439Z,72.36
2019-03-20T23:48:33.975Z,71.51
2019-03-20T23:51:08.259Z,71.51
2019-03-20T23:53:36.876Z,72.56
2019-03-20T23:56:05.084Z,72.56
2019-03-20T23:58:33.560Z,71.97
